Terminal Aerodrome Forecast
Issued by NWS

Home | Current Version | Previous Version | Text Only | Print | Product List | Glossary On
Versions: 1 2 3 4 5 6 7 8 9 10 11 12 13 14 15 16 17 18 19 20 21 22 23 24
000
FTUS46 KLOX 201300 AAC
TAFPRB
TAF AMD
KPRB 201301Z 2013/2112 VRB03KT 1/2SM FG VV002
     FM201500 VRB03KT 3SM BR OVC005
     FM201700 VRB03KT P6SM SKC
     FM202100 21010KT P6SM SCT250
     FM210400 VRB03KT P6SM SCT250
     FM210900 VRB03KT P6SM OVC015=

USA.gov is the U.S. government's official web portal to all federal, state and local government web resources and services.